createdAt,value
2023-01-30T00:01:20.040Z,14.53
2023-01-30T00:03:47.836Z,16.13
2023-01-30T00:06:16.152Z,14.50
2023-01-30T00:08:44.458Z,15.57
2023-01-30T00:11:15.359Z,15.93
2023-01-30T00:13:43.796Z,15.17
2023-01-30T00:16:11.968Z,15.00
2023-01-30T00:18:41.001Z,12.60
2023-01-30T00:21:12.702Z,14.60
2023-01-30T00:23:40.765Z,11.67
2023-01-30T00:26:09.738Z,12.67
2023-01-30T00:28:39.735Z,13.07
2023-01-30T00:31:07.794Z,15.93
2023-01-30T00:33:37.522Z,11.67
2023-01-30T00:36:05.667Z,12.57
2023-01-30T00:38:33.401Z,14.03
2023-01-30T00:41:01.112Z,14.13
2023-01-30T00:43:46.972Z,16.27
2023-01-30T00:46:50.295Z,14.27
2023-01-30T00:49:18.356Z,14.63
2023-01-30T00:51:46.136Z,13.17
2023-01-30T00:54:14.221Z,14.07
2023-01-30T00:56:41.715Z,12.77
2023-01-30T00:59:09.227Z,14.23
2023-01-30T01:01:37.810Z,13.80
2023-01-30T01:04:07.507Z,13.20
2023-01-30T01:06:35.181Z,12.50
2023-01-30T01:09:03.940Z,13.30
2023-01-30T01:11:31.604Z,12.77
2023-01-30T01:14:01.670Z,15.40
2023-01-30T01:16:31.931Z,14.43
2023-01-30T01:19:00.406Z,15.80
2023-01-30T01:21:28.010Z,15.43
2023-01-30T01:23:59.440Z,17.53
2023-01-30T01:26:27.567Z,15.73
2023-01-30T01:28:59.165Z,16.00
2023-01-30T01:31:26.965Z,12.47
2023-01-30T01:33:57.086Z,14.37
2023-01-30T01:36:52.270Z,12.97
2023-01-30T01:39:13.922Z,14.43
2023-01-30T01:41:42.717Z,15.13
2023-01-30T01:44:13.562Z,15.53
2023-01-30T01:46:57.398Z,14.70
2023-01-30T01:49:36.735Z,17.10
2023-01-30T01:52:13.150Z,20.53
2023-01-30T01:54:59.220Z,16.03
2023-01-30T01:57:35.052Z,16.80
2023-01-30T02:00:12.563Z,19.80
2023-01-30T02:02:52.570Z,16.53
2023-01-30T02:05:21.013Z,18.60
2023-01-30T02:08:08.135Z,18.40
2023-01-30T02:11:32.248Z,15.80
2023-01-30T02:14:02.243Z,21.17
2023-01-30T02:16:29.747Z,20.47
2023-01-30T02:18:57.334Z,22.33
2023-01-30T02:21:47.522Z,17.07
2023-01-30T02:25:18.792Z,21.00
2023-01-30T02:28:29.600Z,17.70
2023-01-30T02:31:32.763Z,18.97
2023-01-30T02:34:53.161Z,18.13
2023-01-30T02:38:09.265Z,16.67
2023-01-30T02:41:00.786Z,16.13
2023-01-30T02:44:01.239Z,17.17
2023-01-30T02:46:51.244Z,18.03
2023-01-30T02:49:36.679Z,15.03
2023-01-30T02:52:11.405Z,16.13
2023-01-30T02:54:38.947Z,15.20
2023-01-30T02:57:36.529Z,18.13
2023-01-30T03:00:06.177Z,14.87
2023-01-30T03:03:12.821Z,16.97
2023-01-30T03:06:06.046Z,15.80
2023-01-30T03:09:12.369Z,11.60
2023-01-30T03:12:03.080Z,14.87
2023-01-30T03:14:49.524Z,15.45
2023-01-30T03:17:21.082Z,14.30
2023-01-30T03:19:48.951Z,15.67
2023-01-30T03:22:17.334Z,14.27
2023-01-30T03:24:45.075Z,16.10
2023-01-30T03:27:13.423Z,13.77
2023-01-30T03:29:41.084Z,13.90
2023-01-30T03:32:08.669Z,14.17
2023-01-30T03:34:36.214Z,16.20
2023-01-30T03:37:05.599Z,13.60
2023-01-30T03:39:36.583Z,15.30
2023-01-30T03:42:06.335Z,12.77
2023-01-30T03:44:33.922Z,12.20
2023-01-30T03:47:01.927Z,12.80
2023-01-30T03:49:29.449Z,16.77
2023-01-30T03:51:58.284Z,14.83
2023-01-30T03:54:25.872Z,12.43
2023-01-30T03:56:55.353Z,11.83
2023-01-30T03:59:23.747Z,11.27
2023-01-30T04:01:59.060Z,11.53
2023-01-30T04:04:26.593Z,12.07
2023-01-30T04:06:54.277Z,13.90
2023-01-30T04:09:22.097Z,10.13
2023-01-30T04:11:52.647Z,12.50
2023-01-30T04:14:20.518Z,12.73
2023-01-30T04:17:06.469Z,12.43
2023-01-30T04:19:49.008Z,11.50
2023-01-30T04:22:16.563Z,10.33
2023-01-30T04:24:44.325Z,10.70
2023-01-30T04:27:12.033Z,12.20
2023-01-30T04:29:51.528Z,13.43
2023-01-30T04:32:19.854Z,13.13
2023-01-30T04:34:47.424Z,12.60
2023-01-30T04:37:14.968Z,13.50
2023-01-30T04:39:43.389Z,12.17
2023-01-30T04:42:11.235Z,10.00
2023-01-30T04:44:48.862Z,9.23
2023-01-30T04:47:19.863Z,8.47
2023-01-30T04:49:47.408Z,11.30
2023-01-30T04:52:16.537Z,9.70
2023-01-30T04:54:44.143Z,11.67
2023-01-30T04:57:11.673Z,10.53
2023-01-30T04:59:39.294Z,11.07
2023-01-30T05:02:10.547Z,10.33
2023-01-30T05:04:38.132Z,12.97
2023-01-30T05:07:05.644Z,10.80
2023-01-30T05:09:33.172Z,10.57
2023-01-30T05:12:00.692Z,10.33
2023-01-30T05:14:28.187Z,10.13
2023-01-30T05:16:55.733Z,11.43
2023-01-30T05:19:23.286Z,9.50
2023-01-30T05:21:50.791Z,9.83
2023-01-30T05:24:18.277Z,9.47
2023-01-30T05:26:45.813Z,11.47
2023-01-30T05:29:13.414Z,13.50
2023-01-30T05:31:40.927Z,13.20
2023-01-30T05:34:12.629Z,26.83
2023-01-30T05:36:40.133Z,12.70
2023-01-30T05:39:07.634Z,9.40
2023-01-30T05:41:35.124Z,10.43
2023-01-30T05:44:02.644Z,8.73
2023-01-30T05:46:30.209Z,11.57
2023-01-30T05:48:57.829Z,9.00
2023-01-30T05:51:26.997Z,9.77
2023-01-30T05:53:54.528Z,10.80
2023-01-30T05:56:23.600Z,9.33
2023-01-30T05:58:56.361Z,11.03
2023-01-30T06:01:24.703Z,12.67
2023-01-30T06:03:53.116Z,8.87
2023-01-30T06:06:21.651Z,10.60
2023-01-30T06:08:52.949Z,7.97
2023-01-30T06:11:20.531Z,10.63
2023-01-30T06:13:48.187Z,11.20
2023-01-30T06:16:18.359Z,7.60
2023-01-30T06:18:47.150Z,11.27
2023-01-30T06:21:15.831Z,11.93
2023-01-30T06:23:43.700Z,8.70
2023-01-30T06:26:11.485Z,10.07
2023-01-30T06:28:39.126Z,14.70
2023-01-30T06:31:08.460Z,10.43
2023-01-30T06:33:36.177Z,10.70
2023-01-30T06:36:03.950Z,11.33
2023-01-30T06:38:31.733Z,10.07
2023-01-30T06:40:59.484Z,10.30
2023-01-30T06:43:27.125Z,8.80
2023-01-30T06:45:54.652Z,9.37
2023-01-30T06:48:22.304Z,8.10
2023-01-30T06:50:49.811Z,9.07
2023-01-30T06:53:17.313Z,10.73
2023-01-30T06:55:44.888Z,7.53
2023-01-30T06:58:14.783Z,8.10
2023-01-30T07:00:43.467Z,7.80
2023-01-30T07:03:16.621Z,7.87
2023-01-30T07:05:46.510Z,8.50
2023-01-30T07:08:15.715Z,8.00
2023-01-30T07:10:44.576Z,7.10
2023-01-30T07:13:12.683Z,10.17
2023-01-30T07:15:40.258Z,8.03
2023-01-30T07:18:08.109Z,10.07
2023-01-30T07:20:35.626Z,8.63
2023-01-30T07:23:03.341Z,8.07
2023-01-30T07:25:31.114Z,9.23
2023-01-30T07:28:02.194Z,8.90
2023-01-30T07:30:32.589Z,8.83
2023-01-30T07:33:00.863Z,8.60
2023-01-30T07:35:34.784Z,9.20
2023-01-30T07:38:02.370Z,11.20
2023-01-30T07:40:29.937Z,7.97
2023-01-30T07:43:11.451Z,8.73
2023-01-30T07:45:48.686Z,8.07
2023-01-30T07:48:19.070Z,9.60
2023-01-30T07:50:46.910Z,7.90
2023-01-30T07:53:18.645Z,8.70
2023-01-30T07:55:46.214Z,7.87
2023-01-30T07:58:15.455Z,10.77
2023-01-30T08:00:44.049Z,19.60
2023-01-30T08:03:16.797Z,17.03
2023-01-30T08:05:46.942Z,14.97
2023-01-30T08:08:14.933Z,11.10
2023-01-30T08:10:43.245Z,12.57
2023-01-30T08:13:10.756Z,8.77
2023-01-30T08:15:38.287Z,8.30
2023-01-30T08:18:08.905Z,9.77
2023-01-30T08:20:36.966Z,22.67
2023-01-30T08:23:04.972Z,17.63
2023-01-30T08:25:32.570Z,13.00
2023-01-30T08:28:00.437Z,9.93
2023-01-30T08:30:28.855Z,9.33
2023-01-30T08:32:57.806Z,8.53
2023-01-30T08:35:25.335Z,7.60
2023-01-30T08:37:52.876Z,7.43
2023-01-30T08:40:20.860Z,9.93
2023-01-30T08:42:48.497Z,7.13
2023-01-30T08:45:16.075Z,7.87
2023-01-30T08:47:43.574Z,7.00
2023-01-30T08:50:11.528Z,5.70
2023-01-30T08:52:39.021Z,8.20
2023-01-30T08:55:06.993Z,7.97
2023-01-30T08:57:34.552Z,5.60
2023-01-30T09:00:02.968Z,7.13
2023-01-30T09:02:30.757Z,5.73
2023-01-30T09:04:58.365Z,4.63
2023-01-30T09:07:28.286Z,3.87
2023-01-30T09:09:55.952Z,4.97
2023-01-30T09:12:23.683Z,4.53
2023-01-30T09:14:55.510Z,6.00
2023-01-30T09:17:23.125Z,7.10
2023-01-30T09:19:50.676Z,6.77
2023-01-30T09:22:18.243Z,6.80
2023-01-30T09:24:45.758Z,6.10
2023-01-30T09:27:13.269Z,4.97
2023-01-30T09:29:40.804Z,5.17
2023-01-30T09:32:08.352Z,5.90
2023-01-30T09:34:35.872Z,5.53
2023-01-30T09:37:05.162Z,4.83
2023-01-30T09:39:32.787Z,5.60
2023-01-30T09:42:30.574Z,6.40
2023-01-30T09:45:32.150Z,10.60
2023-01-30T09:48:18.320Z,10.40
2023-01-30T09:50:55.918Z,21.93
2023-01-30T09:53:59.107Z,15.40
2023-01-30T09:56:27.748Z,21.37
2023-01-30T09:58:59.316Z,6.50
2023-01-30T10:01:58.682Z,6.00
2023-01-30T10:04:59.990Z,5.57
2023-01-30T10:07:47.294Z,4.70
2023-01-30T10:10:34.981Z,2.93
2023-01-30T10:13:15.808Z,2.97
2023-01-30T10:16:13.048Z,6.70
2023-01-30T10:19:07.382Z,3.63
2023-01-30T10:21:55.393Z,2.72
2023-01-30T10:24:48.241Z,0.90
2023-01-30T10:27:18.063Z,0.90
2023-01-30T10:29:52.883Z,1.53
2023-01-30T10:32:41.959Z,0.87
2023-01-30T10:35:42.162Z,1.17
2023-01-30T10:38:26.962Z,1.30
2023-01-30T10:41:28.147Z,1.20
2023-01-30T10:44:14.094Z,1.70
2023-01-30T10:46:56.793Z,1.07
2023-01-30T10:49:52.334Z,0.83
2023-01-30T10:52:44.745Z,1.83
2023-01-30T10:55:39.639Z,1.10
2023-01-30T10:58:47.834Z,3.00
2023-01-30T11:01:30.305Z,0.83
2023-01-30T11:04:04.492Z,0.60
2023-01-30T11:06:34.770Z,0.97
2023-01-30T11:09:03.931Z,1.40
2023-01-30T11:11:43.290Z,1.30
2023-01-30T11:14:12.627Z,1.87
2023-01-30T11:16:53.871Z,1.83
2023-01-30T11:19:32.880Z,1.03
2023-01-30T11:22:06.171Z,2.43
2023-01-30T11:24:42.983Z,1.35
2023-01-30T11:27:28.678Z,2.93
2023-01-30T11:30:20.834Z,1.57
2023-01-30T11:32:50.556Z,1.23
2023-01-30T11:35:29.541Z,1.80
2023-01-30T11:38:28.176Z,1.43
2023-01-30T11:41:09.483Z,1.20
2023-01-30T11:43:39.876Z,1.03
2023-01-30T11:46:16.133Z,1.47
2023-01-30T11:49:04.180Z,1.43
2023-01-30T11:51:51.903Z,0.60
2023-01-30T11:54:31.014Z,1.48
2023-01-30T11:57:01.790Z,0.80
2023-01-30T11:59:50.830Z,0.83
2023-01-30T12:02:38.072Z,1.20
2023-01-30T12:05:36.709Z,1.13
2023-01-30T12:08:40.582Z,1.37
2023-01-30T12:11:28.301Z,1.65
2023-01-30T12:14:26.243Z,2.23
2023-01-30T12:17:19.530Z,1.60
2023-01-30T12:20:45.573Z,1.53
2023-01-30T12:23:36.639Z,0.83
2023-01-30T12:26:33.827Z,1.03
2023-01-30T12:29:30.781Z,1.40
2023-01-30T12:32:19.334Z,1.17
2023-01-30T12:34:48.265Z,0.60
2023-01-30T12:37:45.061Z,1.03
2023-01-30T12:40:36.630Z,1.00
2023-01-30T12:43:45.256Z,1.83
2023-01-30T12:46:47.967Z,1.10
2023-01-30T12:49:50.219Z,1.33
2023-01-30T12:52:29.178Z,0.60
2023-01-30T12:55:35.813Z,0.90
2023-01-30T12:58:38.829Z,1.67
2023-01-30T13:01:31.576Z,1.20
2023-01-30T13:04:56.741Z,1.70
2023-01-30T13:07:57.100Z,2.20
2023-01-30T13:10:47.160Z,2.47
2023-01-30T13:13:42.924Z,1.83
2023-01-30T13:16:31.050Z,1.40
2023-01-30T13:19:51.269Z,1.83
2023-01-30T13:22:48.828Z,2.27
2023-01-30T13:25:46.353Z,2.00
2023-01-30T13:28:21.659Z,2.43
2023-01-30T13:30:52.204Z,1.27
2023-01-30T13:33:37.971Z,2.17
2023-01-30T13:36:26.142Z,3.13
2023-01-30T13:39:32.887Z,3.53
2023-01-30T13:42:02.912Z,5.03
2023-01-30T13:44:35.788Z,3.57
2023-01-30T13:47:21.782Z,3.53
2023-01-30T13:50:26.793Z,4.50
2023-01-30T13:56:01.974Z,3.90
2023-01-30T13:58:53.715Z,4.72
2023-01-30T14:01:23.042Z,4.23
2023-01-30T14:03:50.666Z,4.30
2023-01-30T14:06:38.812Z,4.97
2023-01-30T14:09:24.127Z,5.10
2023-01-30T14:12:00.458Z,4.20
2023-01-30T14:14:40.567Z,4.70
2023-01-30T14:17:12.818Z,3.67
2023-01-30T14:20:21.300Z,3.93
2023-01-30T14:23:24.405Z,2.90
2023-01-30T14:25:56.429Z,4.47
2023-01-30T14:28:24.037Z,3.90
2023-01-30T14:31:02.175Z,4.87
2023-01-30T14:33:36.098Z,4.07
2023-01-30T14:36:03.484Z,3.60
2023-01-30T14:38:33.406Z,4.77
2023-01-30T14:41:00.824Z,5.53
2023-01-30T14:43:43.636Z,4.97
2023-01-30T14:46:20.174Z,4.37
2023-01-30T14:49:19.400Z,8.37
2023-01-30T14:51:48.294Z,6.37
2023-01-30T14:54:15.718Z,6.27
2023-01-30T14:57:03.745Z,4.90
2023-01-30T15:00:02.680Z,5.47
2023-01-30T15:02:44.114Z,7.33
2023-01-30T15:05:18.275Z,6.07
2023-01-30T15:07:59.326Z,5.93
2023-01-30T15:10:43.051Z,4.50
2023-01-30T15:13:34.570Z,6.65
2023-01-30T15:16:23.596Z,5.90
2023-01-30T15:19:34.542Z,5.53
2023-01-30T15:22:53.094Z,4.80
2023-01-30T15:25:40.663Z,5.97
2023-01-30T15:28:33.262Z,7.87
2023-01-30T15:31:14.236Z,6.50
2023-01-30T15:33:51.180Z,5.37
2023-01-30T15:36:25.006Z,6.17
2023-01-30T15:39:17.886Z,6.30
2023-01-30T15:41:45.378Z,5.60
2023-01-30T15:44:39.342Z,6.67
2023-01-30T15:47:22.232Z,4.70
2023-01-30T15:49:59.963Z,5.73
2023-01-30T15:52:46.308Z,5.67
2023-01-30T15:55:36.792Z,5.97
2023-01-30T15:58:16.825Z,5.43
2023-01-30T16:00:52.029Z,8.13
2023-01-30T16:03:25.370Z,5.67
2023-01-30T16:05:55.859Z,5.03
2023-01-30T16:08:32.375Z,5.33
2023-01-30T16:11:00.779Z,4.43
2023-01-30T16:13:29.592Z,7.00
2023-01-30T16:16:12.687Z,7.20
2023-01-30T16:18:51.414Z,6.97
2023-01-30T16:21:40.102Z,6.43
2023-01-30T16:24:22.516Z,6.83
2023-01-30T16:26:56.158Z,6.30
2023-01-30T16:29:27.410Z,6.80
2023-01-30T16:31:55.823Z,5.70
2023-01-30T16:34:36.608Z,5.60
2023-01-30T16:37:26.699Z,4.17
2023-01-30T16:40:33.012Z,4.23
2023-01-30T16:43:14.767Z,6.73
2023-01-30T16:45:54.195Z,4.33
2023-01-30T16:48:35.208Z,5.10
2023-01-30T16:51:02.601Z,9.63
2023-01-30T16:53:31.965Z,6.07
2023-01-30T16:56:10.759Z,4.40
2023-01-30T16:58:38.823Z,5.20
2023-01-30T17:01:08.855Z,9.50
2023-01-30T17:03:43.255Z,5.53
2023-01-30T17:06:22.537Z,9.23
2023-01-30T17:08:57.704Z,5.63
2023-01-30T17:11:32.492Z,7.57
2023-01-30T17:14:32.819Z,7.37
2023-01-30T17:17:07.442Z,8.73
2023-01-30T17:19:35.918Z,5.83
2023-01-30T17:22:08.024Z,6.80
2023-01-30T17:24:36.263Z,6.53
2023-01-30T17:27:04.746Z,8.00
2023-01-30T17:29:42.581Z,7.53
2023-01-30T17:32:13.568Z,8.67
2023-01-30T17:34:41.487Z,7.40
2023-01-30T17:37:24.035Z,6.73
2023-01-30T17:39:51.537Z,7.60
2023-01-30T17:42:21.044Z,7.70
2023-01-30T17:44:48.912Z,7.50
2023-01-30T17:47:16.883Z,7.43
2023-01-30T17:49:44.979Z,8.30
2023-01-30T17:52:14.141Z,7.33
2023-01-30T17:54:41.770Z,6.00
2023-01-30T17:57:15.671Z,4.53
2023-01-30T17:59:43.597Z,4.75
2023-01-30T18:02:11.121Z,5.90
2023-01-30T18:04:40.029Z,7.73
2023-01-30T18:07:12.612Z,5.97
2023-01-30T18:09:40.119Z,7.10
2023-01-30T18:12:32.749Z,7.10
2023-01-30T18:15:00.274Z,8.20
2023-01-30T18:17:28.452Z,7.90
2023-01-30T18:19:56.298Z,6.13
2023-01-30T18:22:24.203Z,8.93
2023-01-30T18:24:51.723Z,8.60
2023-01-30T18:27:19.294Z,8.97
2023-01-30T18:29:46.842Z,6.83
2023-01-30T18:32:14.397Z,5.07
2023-01-30T18:34:42.011Z,6.37
2023-01-30T18:37:09.634Z,6.77
2023-01-30T18:39:38.322Z,9.10
2023-01-30T18:42:06.396Z,7.73
2023-01-30T18:44:35.602Z,11.10
2023-01-30T18:47:03.103Z,7.90
2023-01-30T18:49:30.743Z,9.80
2023-01-30T18:51:58.230Z,10.87
2023-01-30T18:54:25.782Z,9.37
2023-01-30T18:56:53.266Z,8.33
2023-01-30T18:59:20.857Z,8.97
2023-01-30T19:01:48.437Z,6.50
2023-01-30T19:04:16.024Z,8.43
2023-01-30T19:06:44.105Z,6.83
2023-01-30T19:09:16.363Z,9.40
2023-01-30T19:12:02.456Z,8.23
2023-01-30T19:14:30.084Z,11.53
2023-01-30T19:16:57.598Z,9.03
2023-01-30T19:19:25.173Z,8.97
2023-01-30T19:21:52.777Z,12.00
2023-01-30T19:24:20.290Z,8.27
2023-01-30T19:26:48.394Z,7.93
2023-01-30T19:29:18.158Z,8.43
2023-01-30T19:31:47.291Z,7.70
2023-01-30T19:34:15.033Z,7.87
2023-01-30T19:36:42.591Z,5.77
2023-01-30T19:39:10.894Z,8.67
2023-01-30T19:41:38.765Z,7.97
2023-01-30T19:44:08.457Z,7.37
2023-01-30T19:46:36.282Z,12.47
2023-01-30T19:49:05.808Z,7.93
2023-01-30T19:51:35.125Z,9.13
2023-01-30T19:54:09.595Z,8.40
2023-01-30T19:56:40.794Z,9.40
2023-01-30T19:59:09.297Z,8.27
2023-01-30T20:01:39.824Z,11.93
2023-01-30T20:04:07.557Z,9.57
2023-01-30T20:06:37.372Z,11.23
2023-01-30T20:09:08.323Z,10.43
2023-01-30T20:11:38.015Z,10.50
2023-01-30T20:14:06.911Z,9.83
2023-01-30T20:16:35.900Z,9.37
2023-01-30T20:19:12.839Z,9.90
2023-01-30T20:21:40.364Z,12.40
2023-01-30T20:24:11.654Z,11.53
2023-01-30T20:26:39.796Z,12.33
2023-01-30T20:29:09.389Z,11.40
2023-01-30T20:31:39.035Z,8.50
2023-01-30T20:34:11.187Z,10.67
2023-01-30T20:36:38.703Z,9.97
2023-01-30T20:39:07.640Z,9.07
2023-01-30T20:41:37.527Z,12.33
2023-01-30T20:44:08.679Z,9.00
2023-01-30T20:46:41.439Z,9.80
2023-01-30T20:49:18.589Z,10.03
2023-01-30T20:51:50.085Z,10.13
2023-01-30T20:54:20.199Z,13.97
2023-01-30T20:56:51.556Z,10.80
2023-01-30T20:59:27.204Z,9.90
2023-01-30T21:01:55.164Z,10.20
2023-01-30T21:04:24.824Z,8.30
2023-01-30T21:06:52.661Z,11.30
2023-01-30T21:09:22.954Z,8.03
2023-01-30T21:11:52.941Z,9.17
2023-01-30T21:14:20.693Z,11.23
2023-01-30T21:16:48.830Z,8.10
2023-01-30T21:19:17.635Z,10.37
2023-01-30T21:22:09.179Z,7.40
2023-01-30T21:24:39.268Z,8.03
2023-01-30T21:27:07.002Z,9.43
2023-01-30T21:29:34.600Z,11.33
2023-01-30T21:32:02.176Z,8.50
2023-01-30T21:34:29.789Z,7.57
2023-01-30T21:37:15.858Z,8.63
2023-01-30T21:40:02.255Z,8.33
2023-01-30T21:42:48.790Z,10.80
2023-01-30T21:45:16.624Z,10.53
2023-01-30T21:47:44.222Z,12.47
2023-01-30T21:50:11.930Z,10.13
2023-01-30T21:52:39.696Z,6.50
2023-01-30T21:55:08.185Z,14.40
2023-01-30T21:57:35.711Z,13.13
2023-01-30T22:00:03.911Z,18.30
2023-01-30T22:02:32.649Z,13.97
2023-01-30T22:05:00.170Z,15.40
2023-01-30T22:07:27.696Z,15.53
2023-01-30T22:09:55.608Z,9.90
2023-01-30T22:12:23.507Z,12.03
2023-01-30T22:14:51.032Z,9.73
2023-01-30T22:17:18.600Z,12.47
2023-01-30T22:19:46.325Z,10.20
2023-01-30T22:22:13.832Z,9.30
2023-01-30T22:24:41.348Z,11.90
2023-01-30T22:27:08.956Z,10.53
2023-01-30T22:29:36.472Z,9.63
2023-01-30T22:32:04.324Z,10.57
2023-01-30T22:34:33.151Z,10.20
2023-01-30T22:37:01.757Z,13.17
2023-01-30T22:39:29.279Z,8.73
2023-01-30T22:41:56.793Z,10.90
2023-01-30T22:44:24.277Z,8.70
2023-01-30T22:46:52.338Z,10.00
2023-01-30T22:49:19.959Z,10.23
2023-01-30T22:51:47.454Z,10.27
2023-01-30T22:54:16.199Z,9.57
2023-01-30T22:56:48.613Z,9.60
2023-01-30T22:59:16.873Z,9.53
2023-01-30T23:01:47.869Z,7.97
2023-01-30T23:04:19.512Z,7.27
2023-01-30T23:06:48.265Z,6.77
2023-01-30T23:09:19.935Z,8.80
2023-01-30T23:12:13.976Z,9.53
2023-01-30T23:14:42.762Z,11.40
2023-01-30T23:17:29.189Z,9.50
2023-01-30T23:19:56.751Z,8.60
2023-01-30T23:22:24.289Z,7.03
2023-01-30T23:24:51.881Z,10.33
2023-01-30T23:27:20.853Z,8.00
2023-01-30T23:29:48.443Z,10.40
2023-01-30T23:32:19.036Z,10.20
2023-01-30T23:34:47.797Z,6.50
2023-01-30T23:37:16.600Z,11.63
2023-01-30T23:39:45.148Z,9.63
2023-01-30T23:42:12.677Z,5.67
2023-01-30T23:44:40.404Z,9.77
2023-01-30T23:47:07.979Z,8.93
2023-01-30T23:49:35.551Z,7.37
2023-01-30T23:52:03.207Z,9.07
2023-01-30T23:54:30.766Z,10.40
2023-01-30T23:56:58.295Z,8.40
2023-01-30T23:59:25.821Z,7.80
